sensor_id;sensor_type;location;lat;lon;timestamp;temperature;humidity
11639;DHT22;5875;35.940;126.892;2024-01-27T00:00:57;3.80;99.90
11639;DHT22;5875;35.940;126.892;2024-01-27T00:03:24;4.20;99.90
11639;DHT22;5875;35.940;126.892;2024-01-27T00:05:54;4.80;99.90
11639;DHT22;5875;35.940;126.892;2024-01-27T00:08:21;5.30;99.90
11639;DHT22;5875;35.940;126.892;2024-01-27T00:10:51;5.60;99.90
11639;DHT22;5875;35.940;126.892;2024-01-27T00:13:18;6.10;99.90
11639;DHT22;5875;35.940;126.892;2024-01-27T00:15:45;6.40;99.90
11639;DHT22;5875;35.940;126.892;2024-01-27T00:18:14;6.90;99.90
11639;DHT22;5875;35.940;126.892;2024-01-27T00:20:42;7.40;99.90
11639;DHT22;5875;35.940;126.892;2024-01-27T00:23:09;7.60;99.90
11639;DHT22;5875;35.940;126.892;2024-01-27T00:25:36;7.90;99.90
11639;DHT22;5875;35.940;126.892;2024-01-27T00:28:06;8.30;99.90
11639;DHT22;5875;35.940;126.892;2024-01-27T00:30:33;8.50;99.90
11639;DHT22;5875;35.940;126.892;2024-01-27T00:33:03;8.80;99.90
11639;DHT22;5875;35.940;126.892;2024-01-27T00:35:30;9.00;99.90
11639;DHT22;5875;35.940;126.892;2024-01-27T00:37:58;9.40;99.90
11639;DHT22;5875;35.940;126.892;2024-01-27T00:40:25;9.80;99.90
11639;DHT22;5875;35.940;126.892;2024-01-27T00:42:55;10.00;99.90
11639;DHT22;5875;35.940;126.892;2024-01-27T00:45:22;10.20;99.90
11639;DHT22;5875;35.940;126.892;2024-01-27T00:47:52;10.20;99.90
11639;DHT22;5875;35.940;126.892;2024-01-27T00:50:19;10.50;99.90
11639;DHT22;5875;35.940;126.892;2024-01-27T00:52:46;10.90;99.90
11639;DHT22;5875;35.940;126.892;2024-01-27T00:55:13;11.20;99.90
11639;DHT22;5875;35.940;126.892;2024-01-27T00:57:40;11.50;99.90
11639;DHT22;5875;35.940;126.892;2024-01-27T01:00:09;11.70;99.90
11639;DHT22;5875;35.940;126.892;2024-01-27T01:02:37;11.90;99.90
11639;DHT22;5875;35.940;126.892;2024-01-27T01:05:04;12.20;99.90
11639;DHT22;5875;35.940;126.892;2024-01-27T01:07:32;12.00;99.90
11639;DHT22;5875;35.940;126.892;2024-01-27T01:09:59;11.90;99.90
11639;DHT22;5875;35.940;126.892;2024-01-27T01:12:26;12.20;99.90
11639;DHT22;5875;35.940;126.892;2024-01-27T01:14:53;12.80;99.90
11639;DHT22;5875;35.940;126.892;2024-01-27T01:17:21;12.90;99.90
11639;DHT22;5875;35.940;126.892;2024-01-27T01:19:48;12.70;99.90
11639;DHT22;5875;35.940;126.892;2024-01-27T01:22:15;13.00;99.90
11639;DHT22;5875;35.940;126.892;2024-01-27T01:24:43;13.00;99.90
11639;DHT22;5875;35.940;126.892;2024-01-27T01:27:10;12.90;99.90
11639;DHT22;5875;35.940;126.892;2024-01-27T01:29:37;13.30;99.90
11639;DHT22;5875;35.940;126.892;2024-01-27T01:32:04;13.50;99.90
11639;DHT22;5875;35.940;126.892;2024-01-27T01:34:31;13.70;99.90
11639;DHT22;5875;35.940;126.892;2024-01-27T01:37:00;13.90;99.90
11639;DHT22;5875;35.940;126.892;2024-01-27T01:39:29;14.00;99.90
11639;DHT22;5875;35.940;126.892;2024-01-27T01:41:57;14.20;99.90
11639;DHT22;5875;35.940;126.892;2024-01-27T01:44:31;14.40;99.90
11639;DHT22;5875;35.940;126.892;2024-01-27T01:46:58;14.50;99.90
11639;DHT22;5875;35.940;126.892;2024-01-27T01:49:26;14.30;99.90
11639;DHT22;5875;35.940;126.892;2024-01-27T01:51:53;14.20;99.90
11639;DHT22;5875;35.940;126.892;2024-01-27T01:54:21;14.10;99.90
11639;DHT22;5875;35.940;126.892;2024-01-27T01:56:52;14.40;99.90
11639;DHT22;5875;35.940;126.892;2024-01-27T01:59:19;14.80;99.90
11639;DHT22;5875;35.940;126.892;2024-01-27T02:01:47;14.90;99.90
11639;DHT22;5875;35.940;126.892;2024-01-27T02:04:14;14.90;99.90
11639;DHT22;5875;35.940;126.892;2024-01-27T02:06:43;14.80;99.90
11639;DHT22;5875;35.940;126.892;2024-01-27T02:09:10;14.90;99.90
11639;DHT22;5875;35.940;126.892;2024-01-27T02:11:37;14.70;99.90
11639;DHT22;5875;35.940;126.892;2024-01-27T02:14:05;14.90;99.90
11639;DHT22;5875;35.940;126.892;2024-01-27T02:16:33;14.60;99.90
11639;DHT22;5875;35.940;126.892;2024-01-27T02:19:00;14.60;96.50
11639;DHT22;5875;35.940;126.892;2024-01-27T02:21:27;14.70;89.70
11639;DHT22;5875;35.940;126.892;2024-01-27T02:23:54;15.00;74.70
11639;DHT22;5875;35.940;126.892;2024-01-27T02:26:21;15.00;50.70
11639;DHT22;5875;35.940;126.892;2024-01-27T02:28:48;15.20;44.30
11639;DHT22;5875;35.940;126.892;2024-01-27T02:31:16;15.00;30.70
11639;DHT22;5875;35.940;126.892;2024-01-27T02:33:43;14.70;13.00
11639;DHT22;5875;35.940;126.892;2024-01-27T02:36:10;14.30;1.00
11639;DHT22;5875;35.940;126.892;2024-01-27T02:38:37;14.60;3.10
11639;DHT22;5875;35.940;126.892;2024-01-27T02:41:04;14.40;1.00
11639;DHT22;5875;35.940;126.892;2024-01-27T02:43:34;14.30;1.00
11639;DHT22;5875;35.940;126.892;2024-01-27T02:46:02;14.10;1.00
11639;DHT22;5875;35.940;126.892;2024-01-27T02:48:29;13.80;1.00
11639;DHT22;5875;35.940;126.892;2024-01-27T02:50:56;13.90;1.00
11639;DHT22;5875;35.940;126.892;2024-01-27T02:53:23;13.80;1.00
11639;DHT22;5875;35.940;126.892;2024-01-27T02:55:50;13.30;1.00
11639;DHT22;5875;35.940;126.892;2024-01-27T02:58:18;13.50;1.00
11639;DHT22;5875;35.940;126.892;2024-01-27T03:00:45;13.60;1.00
11639;DHT22;5875;35.940;126.892;2024-01-27T03:03:12;13.40;1.00
11639;DHT22;5875;35.940;126.892;2024-01-27T03:05:39;13.50;1.00
11639;DHT22;5875;35.940;126.892;2024-01-27T03:08:06;13.40;1.00
11639;DHT22;5875;35.940;126.892;2024-01-27T03:10:37;13.30;1.00
11639;DHT22;5875;35.940;126.892;2024-01-27T03:13:04;13.20;1.00
11639;DHT22;5875;35.940;126.892;2024-01-27T03:15:31;13.40;1.00
11639;DHT22;5875;35.940;126.892;2024-01-27T03:17:58;12.90;1.00
11639;DHT22;5875;35.940;126.892;2024-01-27T03:20:25;12.60;1.00
11639;DHT22;5875;35.940;126.892;2024-01-27T03:22:54;12.80;1.00
11639;DHT22;5875;35.940;126.892;2024-01-27T03:25:21;12.90;1.00
11639;DHT22;5875;35.940;126.892;2024-01-27T03:27:48;12.70;1.00
11639;DHT22;5875;35.940;126.892;2024-01-27T03:30:15;12.60;1.00
11639;DHT22;5875;35.940;126.892;2024-01-27T03:32:42;12.60;1.00
11639;DHT22;5875;35.940;126.892;2024-01-27T03:35:10;12.70;1.00
11639;DHT22;5875;35.940;126.892;2024-01-27T03:37:37;12.60;1.00
11639;DHT22;5875;35.940;126.892;2024-01-27T03:40:04;12.80;1.00
11639;DHT22;5875;35.940;126.892;2024-01-27T03:42:32;12.70;1.00
11639;DHT22;5875;35.940;126.892;2024-01-27T03:45:02;12.50;1.00
11639;DHT22;5875;35.940;126.892;2024-01-27T03:47:29;12.70;1.00
11639;DHT22;5875;35.940;126.892;2024-01-27T03:49:56;12.60;1.00
11639;DHT22;5875;35.940;126.892;2024-01-27T03:52:23;12.90;1.00
11639;DHT22;5875;35.940;126.892;2024-01-27T03:54:50;12.40;1.00
11639;DHT22;5875;35.940;126.892;2024-01-27T03:57:18;12.40;1.00
11639;DHT22;5875;35.940;126.892;2024-01-27T03:59:45;12.30;1.00
11639;DHT22;5875;35.940;126.892;2024-01-27T04:02:12;12.70;1.00
11639;DHT22;5875;35.940;126.892;2024-01-27T04:04:39;13.20;1.00
11639;DHT22;5875;35.940;126.892;2024-01-27T04:07:06;13.10;1.00
11639;DHT22;5875;35.940;126.892;2024-01-27T04:09:33;13.00;1.00
11639;DHT22;5875;35.940;126.892;2024-01-27T04:12:00;12.30;1.00
11639;DHT22;5875;35.940;126.892;2024-01-27T04:14:27;12.60;1.00
11639;DHT22;5875;35.940;126.892;2024-01-27T04:16:54;12.40;1.00
11639;DHT22;5875;35.940;126.892;2024-01-27T04:19:24;12.50;1.00
11639;DHT22;5875;35.940;126.892;2024-01-27T04:21:51;12.60;1.00
11639;DHT22;5875;35.940;126.892;2024-01-27T04:24:18;12.60;1.00
11639;DHT22;5875;35.940;126.892;2024-01-27T04:26:45;12.80;1.00
11639;DHT22;5875;35.940;126.892;2024-01-27T04:29:13;13.10;1.00
11639;DHT22;5875;35.940;126.892;2024-01-27T04:31:41;13.10;1.00
11639;DHT22;5875;35.940;126.892;2024-01-27T04:34:08;13.00;1.00
11639;DHT22;5875;35.940;126.892;2024-01-27T04:36:36;12.90;1.00
11639;DHT22;5875;35.940;126.892;2024-01-27T04:39:04;12.80;1.00
11639;DHT22;5875;35.940;126.892;2024-01-27T04:41:31;12.80;1.00
11639;DHT22;5875;35.940;126.892;2024-01-27T04:43:58;13.00;1.00
11639;DHT22;5875;35.940;126.892;2024-01-27T04:46:25;13.00;1.00
11639;DHT22;5875;35.940;126.892;2024-01-27T04:48:53;13.20;1.00
11639;DHT22;5875;35.940;126.892;2024-01-27T04:51:20;13.00;1.00
11639;DHT22;5875;35.940;126.892;2024-01-27T04:53:47;13.00;1.00
11639;DHT22;5875;35.940;126.892;2024-01-27T04:56:14;13.10;1.00
11639;DHT22;5875;35.940;126.892;2024-01-27T04:58:41;13.00;1.00
11639;DHT22;5875;35.940;126.892;2024-01-27T05:01:08;12.90;1.00
11639;DHT22;5875;35.940;126.892;2024-01-27T05:03:35;12.70;1.00
11639;DHT22;5875;35.940;126.892;2024-01-27T05:06:03;12.70;1.00
11639;DHT22;5875;35.940;126.892;2024-01-27T05:08:30;12.90;1.00
11639;DHT22;5875;35.940;126.892;2024-01-27T05:10:58;13.00;1.00
11639;DHT22;5875;35.940;126.892;2024-01-27T05:13:25;13.00;1.00
11639;DHT22;5875;35.940;126.892;2024-01-27T05:15:52;13.00;1.00
11639;DHT22;5875;35.940;126.892;2024-01-27T05:18:19;12.90;1.00
11639;DHT22;5875;35.940;126.892;2024-01-27T05:20:46;12.90;1.00
11639;DHT22;5875;35.940;126.892;2024-01-27T05:23:13;13.00;1.00
11639;DHT22;5875;35.940;126.892;2024-01-27T05:25:40;12.80;1.00
11639;DHT22;5875;35.940;126.892;2024-01-27T05:28:07;12.70;1.00
11639;DHT22;5875;35.940;126.892;2024-01-27T05:30:34;12.80;1.00
11639;DHT22;5875;35.940;126.892;2024-01-27T05:33:01;12.60;1.00
11639;DHT22;5875;35.940;126.892;2024-01-27T05:35:29;12.50;1.00
11639;DHT22;5875;35.940;126.892;2024-01-27T05:37:58;12.60;1.00
11639;DHT22;5875;35.940;126.892;2024-01-27T05:40:26;12.60;1.00
11639;DHT22;5875;35.940;126.892;2024-01-27T05:42:53;12.50;1.00
11639;DHT22;5875;35.940;126.892;2024-01-27T05:45:21;12.40;1.00
11639;DHT22;5875;35.940;126.892;2024-01-27T05:47:52;12.40;1.00
11639;DHT22;5875;35.940;126.892;2024-01-27T05:50:20;12.30;1.00
11639;DHT22;5875;35.940;126.892;2024-01-27T05:52:47;12.30;1.00
11639;DHT22;5875;35.940;126.892;2024-01-27T05:55:14;12.30;1.00
11639;DHT22;5875;35.940;126.892;2024-01-27T05:57:44;12.30;1.00
11639;DHT22;5875;35.940;126.892;2024-01-27T06:00:14;12.20;1.00
11639;DHT22;5875;35.940;126.892;2024-01-27T06:02:41;12.20;1.00
11639;DHT22;5875;35.940;126.892;2024-01-27T06:05:08;12.10;1.00
11639;DHT22;5875;35.940;126.892;2024-01-27T06:07:38;12.00;1.00
11639;DHT22;5875;35.940;126.892;2024-01-27T06:10:08;12.10;1.00
11639;DHT22;5875;35.940;126.892;2024-01-27T06:12:37;12.30;1.00
11639;DHT22;5875;35.940;126.892;2024-01-27T06:15:07;12.40;1.00
11639;DHT22;5875;35.940;126.892;2024-01-27T06:17:35;12.10;1.00
11639;DHT22;5875;35.940;126.892;2024-01-27T06:20:02;12.00;1.00
11639;DHT22;5875;35.940;126.892;2024-01-27T06:22:30;12.00;1.00
11639;DHT22;5875;35.940;126.892;2024-01-27T06:25:00;12.10;1.00
11639;DHT22;5875;35.940;126.892;2024-01-27T06:27:27;12.10;1.00
11639;DHT22;5875;35.940;126.892;2024-01-27T06:29:54;11.90;1.00
11639;DHT22;5875;35.940;126.892;2024-01-27T06:32:21;11.60;1.00
11639;DHT22;5875;35.940;126.892;2024-01-27T06:34:51;11.70;1.00
11639;DHT22;5875;35.940;126.892;2024-01-27T06:37:18;11.80;1.00
11639;DHT22;5875;35.940;126.892;2024-01-27T06:39:45;11.80;1.00
11639;DHT22;5875;35.940;126.892;2024-01-27T06:42:12;11.50;1.00
11639;DHT22;5875;35.940;126.892;2024-01-27T06:44:42;11.50;1.00
11639;DHT22;5875;35.940;126.892;2024-01-27T06:47:09;11.70;1.00
11639;DHT22;5875;35.940;126.892;2024-01-27T06:49:36;11.70;1.00
11639;DHT22;5875;35.940;126.892;2024-01-27T06:52:04;11.70;1.00
11639;DHT22;5875;35.940;126.892;2024-01-27T06:54:31;11.60;1.00
11639;DHT22;5875;35.940;126.892;2024-01-27T06:57:00;11.60;1.00
11639;DHT22;5875;35.940;126.892;2024-01-27T06:59:27;11.50;1.00
11639;DHT22;5875;35.940;126.892;2024-01-27T07:01:54;11.40;1.00
11639;DHT22;5875;35.940;126.892;2024-01-27T07:04:22;11.20;1.00
11639;DHT22;5875;35.940;126.892;2024-01-27T07:06:49;11.20;1.00
11639;DHT22;5875;35.940;126.892;2024-01-27T07:09:16;11.20;1.00
11639;DHT22;5875;35.940;126.892;2024-01-27T07:11:45;11.10;1.00
11639;DHT22;5875;35.940;126.892;2024-01-27T07:14:12;10.90;1.00
11639;DHT22;5875;35.940;126.892;2024-01-27T07:16:42;10.70;1.00
11639;DHT22;5875;35.940;126.892;2024-01-27T07:19:09;10.70;1.00
11639;DHT22;5875;35.940;126.892;2024-01-27T07:21:37;10.50;1.00
11639;DHT22;5875;35.940;126.892;2024-01-27T07:24:05;10.40;1.00
11639;DHT22;5875;35.940;126.892;2024-01-27T07:26:32;10.30;1.00
11639;DHT22;5875;35.940;126.892;2024-01-27T07:28:59;10.30;1.00
11639;DHT22;5875;35.940;126.892;2024-01-27T07:31:26;10.30;1.00
11639;DHT22;5875;35.940;126.892;2024-01-27T07:33:54;10.30;1.00
11639;DHT22;5875;35.940;126.892;2024-01-27T07:36:21;10.20;1.00
11639;DHT22;5875;35.940;126.892;2024-01-27T07:38:48;10.10;1.00
11639;DHT22;5875;35.940;126.892;2024-01-27T07:41:15;10.10;1.00
11639;DHT22;5875;35.940;126.892;2024-01-27T07:43:42;9.90;1.00
11639;DHT22;5875;35.940;126.892;2024-01-27T07:46:09;9.90;1.00
11639;DHT22;5875;35.940;126.892;2024-01-27T07:48:39;9.80;1.00
11639;DHT22;5875;35.940;126.892;2024-01-27T07:51:06;9.70;1.00
11639;DHT22;5875;35.940;126.892;2024-01-27T07:53:34;9.70;1.00
11639;DHT22;5875;35.940;126.892;2024-01-27T07:56:01;9.60;1.00
11639;DHT22;5875;35.940;126.892;2024-01-27T07:58:28;9.60;1.00
11639;DHT22;5875;35.940;126.892;2024-01-27T08:00:55;9.30;1.00
11639;DHT22;5875;35.940;126.892;2024-01-27T08:03:22;9.20;1.00
11639;DHT22;5875;35.940;126.892;2024-01-27T08:05:49;9.10;1.00
11639;DHT22;5875;35.940;126.892;2024-01-27T08:08:16;9.00;1.00
11639;DHT22;5875;35.940;126.892;2024-01-27T08:10:44;9.00;1.00
11639;DHT22;5875;35.940;126.892;2024-01-27T08:13:11;9.00;1.00
11639;DHT22;5875;35.940;126.892;2024-01-27T08:15:38;8.80;1.00
11639;DHT22;5875;35.940;126.892;2024-01-27T08:18:05;8.70;1.00
11639;DHT22;5875;35.940;126.892;2024-01-27T08:20:33;8.60;1.00
11639;DHT22;5875;35.940;126.892;2024-01-27T08:23:00;8.60;1.00
11639;DHT22;5875;35.940;126.892;2024-01-27T08:25:27;8.50;1.00
11639;DHT22;5875;35.940;126.892;2024-01-27T08:27:54;8.40;1.00
11639;DHT22;5875;35.940;126.892;2024-01-27T08:30:21;8.40;1.00
11639;DHT22;5875;35.940;126.892;2024-01-27T08:32:48;8.10;1.00
11639;DHT22;5875;35.940;126.892;2024-01-27T08:35:18;8.00;1.00
11639;DHT22;5875;35.940;126.892;2024-01-27T08:37:45;8.00;1.00
11639;DHT22;5875;35.940;126.892;2024-01-27T08:40:12;7.90;1.00
11639;DHT22;5875;35.940;126.892;2024-01-27T08:42:39;7.80;1.00
11639;DHT22;5875;35.940;126.892;2024-01-27T08:45:07;7.70;1.00
11639;DHT22;5875;35.940;126.892;2024-01-27T08:47:34;7.50;1.00
11639;DHT22;5875;35.940;126.892;2024-01-27T08:50:05;7.20;1.00
11639;DHT22;5875;35.940;126.892;2024-01-27T08:52:36;6.90;1.00
11639;DHT22;5875;35.940;126.892;2024-01-27T08:55:06;6.70;1.00
11639;DHT22;5875;35.940;126.892;2024-01-27T08:57:33;6.80;1.00
11639;DHT22;5875;35.940;126.892;2024-01-27T09:00:04;6.60;1.00
11639;DHT22;5875;35.940;126.892;2024-01-27T09:02:35;6.60;1.00
11639;DHT22;5875;35.940;126.892;2024-01-27T09:05:03;6.50;1.00
11639;DHT22;5875;35.940;126.892;2024-01-27T09:07:30;6.50;1.00
11639;DHT22;5875;35.940;126.892;2024-01-27T09:09:57;6.40;1.00
11639;DHT22;5875;35.940;126.892;2024-01-27T09:12:24;6.20;1.00
11639;DHT22;5875;35.940;126.892;2024-01-27T09:14:51;6.10;1.00
11639;DHT22;5875;35.940;126.892;2024-01-27T09:17:23;6.00;1.00
11639;DHT22;5875;35.940;126.892;2024-01-27T09:19:50;5.90;1.00
11639;DHT22;5875;35.940;126.892;2024-01-27T09:22:17;5.80;1.00
11639;DHT22;5875;35.940;126.892;2024-01-27T09:24:44;5.80;1.00
11639;DHT22;5875;35.940;126.892;2024-01-27T09:27:12;5.60;1.00
11639;DHT22;5875;35.940;126.892;2024-01-27T09:29:39;5.50;1.00
11639;DHT22;5875;35.940;126.892;2024-01-27T09:32:06;5.40;1.00
11639;DHT22;5875;35.940;126.892;2024-01-27T09:34:36;5.40;1.00
11639;DHT22;5875;35.940;126.892;2024-01-27T09:37:03;5.40;1.00
11639;DHT22;5875;35.940;126.892;2024-01-27T09:39:31;5.40;1.00
11639;DHT22;5875;35.940;126.892;2024-01-27T09:42:01;5.50;1.00
11639;DHT22;5875;35.940;126.892;2024-01-27T09:44:32;5.60;1.00
11639;DHT22;5875;35.940;126.892;2024-01-27T09:46:59;5.40;1.00
11639;DHT22;5875;35.940;126.892;2024-01-27T09:49:27;5.40;1.00
11639;DHT22;5875;35.940;126.892;2024-01-27T09:52:00;5.30;1.00
11639;DHT22;5875;35.940;126.892;2024-01-27T09:54:27;5.20;1.00
11639;DHT22;5875;35.940;126.892;2024-01-27T09:56:54;5.20;1.00
11639;DHT22;5875;35.940;126.892;2024-01-27T09:59:25;5.10;1.00
11639;DHT22;5875;35.940;126.892;2024-01-27T10:01:53;5.10;1.00
11639;DHT22;5875;35.940;126.892;2024-01-27T10:04:20;5.10;1.00
11639;DHT22;5875;35.940;126.892;2024-01-27T10:06:49;5.10;1.00
11639;DHT22;5875;35.940;126.892;2024-01-27T10:09:18;5.00;1.00
11639;DHT22;5875;35.940;126.892;2024-01-27T10:11:48;4.90;1.00
11639;DHT22;5875;35.940;126.892;2024-01-27T10:14:16;4.90;1.00
11639;DHT22;5875;35.940;126.892;2024-01-27T10:16:46;4.80;1.00
11639;DHT22;5875;35.940;126.892;2024-01-27T10:19:17;4.70;2.70
11639;DHT22;5875;35.940;126.892;2024-01-27T10:21:46;4.40;3.70
11639;DHT22;5875;35.940;126.892;2024-01-27T10:24:14;4.40;4.00
11639;DHT22;5875;35.940;126.892;2024-01-27T10:26:41;4.30;3.60
11639;DHT22;5875;35.940;126.892;2024-01-27T10:29:09;4.30;6.70
11639;DHT22;5875;35.940;126.892;2024-01-27T10:31:36;4.30;7.10
11639;DHT22;5875;35.940;126.892;2024-01-27T10:34:06;4.30;8.70
11639;DHT22;5875;35.940;126.892;2024-01-27T10:36:42;4.20;9.30
11639;DHT22;5875;35.940;126.892;2024-01-27T10:39:22;4.10;10.60
11639;DHT22;5875;35.940;126.892;2024-01-27T10:41:50;4.10;14.20
11639;DHT22;5875;35.940;126.892;2024-01-27T10:44:21;4.00;14.70
11639;DHT22;5875;35.940;126.892;2024-01-27T10:46:49;4.00;15.20
11639;DHT22;5875;35.940;126.892;2024-01-27T10:49:18;3.90;16.90
11639;DHT22;5875;35.940;126.892;2024-01-27T10:52:08;3.80;18.40
11639;DHT22;5875;35.940;126.892;2024-01-27T10:54:39;3.80;20.60
11639;DHT22;5875;35.940;126.892;2024-01-27T10:57:08;3.80;23.00
11639;DHT22;5875;35.940;126.892;2024-01-27T10:59:37;3.80;26.40
11639;DHT22;5875;35.940;126.892;2024-01-27T11:02:06;3.80;24.40
11639;DHT22;5875;35.940;126.892;2024-01-27T11:04:38;3.80;21.70
11639;DHT22;5875;35.940;126.892;2024-01-27T11:07:05;3.80;20.30
11639;DHT22;5875;35.940;126.892;2024-01-27T11:09:34;3.80;20.00
11639;DHT22;5875;35.940;126.892;2024-01-27T11:12:05;3.80;19.70
11639;DHT22;5875;35.940;126.892;2024-01-27T11:14:33;3.80;20.30
11639;DHT22;5875;35.940;126.892;2024-01-27T11:17:00;3.70;21.50
11639;DHT22;5875;35.940;126.892;2024-01-27T11:19:28;3.70;21.50
11639;DHT22;5875;35.940;126.892;2024-01-27T11:22:05;3.60;22.30
11639;DHT22;5875;35.940;126.892;2024-01-27T11:24:32;3.70;20.50
11639;DHT22;5875;35.940;126.892;2024-01-27T11:27:04;3.60;21.10
11639;DHT22;5875;35.940;126.892;2024-01-27T11:29:32;3.60;22.70
11639;DHT22;5875;35.940;126.892;2024-01-27T11:32:03;3.40;25.90
11639;DHT22;5875;35.940;126.892;2024-01-27T11:34:46;3.40;29.40
11639;DHT22;5875;35.940;126.892;2024-01-27T11:37:17;3.40;30.50
11639;DHT22;5875;35.940;126.892;2024-01-27T11:39:50;3.40;27.50
11639;DHT22;5875;35.940;126.892;2024-01-27T11:42:21;3.40;27.70
11639;DHT22;5875;35.940;126.892;2024-01-27T11:44:51;3.30;27.30
11639;DHT22;5875;35.940;126.892;2024-01-27T11:47:19;3.40;27.10
11639;DHT22;5875;35.940;126.892;2024-01-27T11:49:54;3.20;28.70
11639;DHT22;5875;35.940;126.892;2024-01-27T11:52:22;2.90;41.50
11639;DHT22;5875;35.940;126.892;2024-01-27T11:54:56;3.00;47.60
11639;DHT22;5875;35.940;126.892;2024-01-27T11:57:24;3.10;44.40
11639;DHT22;5875;35.940;126.892;2024-01-27T11:59:52;3.20;37.30
11639;DHT22;5875;35.940;126.892;2024-01-27T12:02:20;3.20;37.40
11639;DHT22;5875;35.940;126.892;2024-01-27T12:04:50;3.00;44.90
11639;DHT22;5875;35.940;126.892;2024-01-27T12:07:19;2.90;52.80
11639;DHT22;5875;35.940;126.892;2024-01-27T12:09:48;3.00;42.60
11639;DHT22;5875;35.940;126.892;2024-01-27T12:12:15;2.90;42.90
11639;DHT22;5875;35.940;126.892;2024-01-27T12:14:47;2.70;54.90
11639;DHT22;5875;35.940;126.892;2024-01-27T12:17:14;2.50;77.60
11639;DHT22;5875;35.940;126.892;2024-01-27T12:19:51;2.20;94.00
11639;DHT22;5875;35.940;126.892;2024-01-27T12:22:23;2.00;99.90
11639;DHT22;5875;35.940;126.892;2024-01-27T12:24:55;2.10;99.90
11639;DHT22;5875;35.940;126.892;2024-01-27T12:27:23;2.20;99.90
11639;DHT22;5875;35.940;126.892;2024-01-27T12:29:50;2.30;99.90
11639;DHT22;5875;35.940;126.892;2024-01-27T12:32:17;2.40;99.90
11639;DHT22;5875;35.940;126.892;2024-01-27T12:34:45;2.30;99.90
11639;DHT22;5875;35.940;126.892;2024-01-27T12:37:14;2.40;99.90
11639;DHT22;5875;35.940;126.892;2024-01-27T12:39:44;2.50;99.90
11639;DHT22;5875;35.940;126.892;2024-01-27T12:42:12;2.30;99.90
11639;DHT22;5875;35.940;126.892;2024-01-27T12:44:39;2.20;99.90
11639;DHT22;5875;35.940;126.892;2024-01-27T12:47:07;2.20;99.90
11639;DHT22;5875;35.940;126.892;2024-01-27T12:49:35;2.30;99.90
11639;DHT22;5875;35.940;126.892;2024-01-27T12:52:03;2.30;99.90
11639;DHT22;5875;35.940;126.892;2024-01-27T12:54:30;2.40;99.90
11639;DHT22;5875;35.940;126.892;2024-01-27T12:56:57;2.40;99.90
11639;DHT22;5875;35.940;126.892;2024-01-27T12:59:24;2.30;99.90
11639;DHT22;5875;35.940;126.892;2024-01-27T13:01:51;2.20;99.90
11639;DHT22;5875;35.940;126.892;2024-01-27T13:04:19;2.00;99.90
11639;DHT22;5875;35.940;126.892;2024-01-27T13:06:46;1.90;99.90
11639;DHT22;5875;35.940;126.892;2024-01-27T13:09:13;1.90;99.90
11639;DHT22;5875;35.940;126.892;2024-01-27T13:11:40;1.80;99.90
11639;DHT22;5875;35.940;126.892;2024-01-27T13:14:08;1.80;99.90
11639;DHT22;5875;35.940;126.892;2024-01-27T13:16:35;1.80;99.90
11639;DHT22;5875;35.940;126.892;2024-01-27T13:19:03;1.80;99.90
11639;DHT22;5875;35.940;126.892;2024-01-27T13:21:30;1.80;99.90
11639;DHT22;5875;35.940;126.892;2024-01-27T13:23:57;1.80;99.90
11639;DHT22;5875;35.940;126.892;2024-01-27T13:26:24;1.80;99.90
11639;DHT22;5875;35.940;126.892;2024-01-27T13:28:51;1.80;99.90
11639;DHT22;5875;35.940;126.892;2024-01-27T13:31:19;1.80;99.90
11639;DHT22;5875;35.940;126.892;2024-01-27T13:33:46;1.80;99.90
11639;DHT22;5875;35.940;126.892;2024-01-27T13:36:13;1.80;99.90
11639;DHT22;5875;35.940;126.892;2024-01-27T13:38:40;1.70;99.90
11639;DHT22;5875;35.940;126.892;2024-01-27T13:41:07;1.80;99.90
11639;DHT22;5875;35.940;126.892;2024-01-27T13:43:37;1.80;99.90
11639;DHT22;5875;35.940;126.892;2024-01-27T13:46:05;1.90;99.90
11639;DHT22;5875;35.940;126.892;2024-01-27T13:48:32;1.80;99.90
11639;DHT22;5875;35.940;126.892;2024-01-27T13:50:59;1.90;99.90
11639;DHT22;5875;35.940;126.892;2024-01-27T13:53:26;1.90;99.90
11639;DHT22;5875;35.940;126.892;2024-01-27T13:55:53;1.80;99.90
11639;DHT22;5875;35.940;126.892;2024-01-27T13:58:21;1.90;99.90
11639;DHT22;5875;35.940;126.892;2024-01-27T14:00:48;1.80;99.90
11639;DHT22;5875;35.940;126.892;2024-01-27T14:03:18;1.70;99.90
11639;DHT22;5875;35.940;126.892;2024-01-27T14:05:45;1.60;99.90
11639;DHT22;5875;35.940;126.892;2024-01-27T14:08:13;1.50;99.90
11639;DHT22;5875;35.940;126.892;2024-01-27T14:10:41;1.40;99.90
11639;DHT22;5875;35.940;126.892;2024-01-27T14:13:10;1.40;99.90
11639;DHT22;5875;35.940;126.892;2024-01-27T14:15:40;1.50;99.90
11639;DHT22;5875;35.940;126.892;2024-01-27T14:18:07;1.40;99.90
11639;DHT22;5875;35.940;126.892;2024-01-27T14:20:35;1.40;99.90
11639;DHT22;5875;35.940;126.892;2024-01-27T14:23:04;1.50;99.90
11639;DHT22;5875;35.940;126.892;2024-01-27T14:25:31;1.60;99.90
11639;DHT22;5875;35.940;126.892;2024-01-27T14:27:58;1.60;99.90
11639;DHT22;5875;35.940;126.892;2024-01-27T14:30:28;1.60;99.90
11639;DHT22;5875;35.940;126.892;2024-01-27T14:32:55;1.60;99.90
11639;DHT22;5875;35.940;126.892;2024-01-27T14:35:22;1.60;99.90
11639;DHT22;5875;35.940;126.892;2024-01-27T14:37:49;1.60;99.90
11639;DHT22;5875;35.940;126.892;2024-01-27T14:40:17;1.60;99.90
11639;DHT22;5875;35.940;126.892;2024-01-27T14:42:47;1.70;99.90
11639;DHT22;5875;35.940;126.892;2024-01-27T14:45:16;1.40;99.90
11639;DHT22;5875;35.940;126.892;2024-01-27T14:47:46;1.30;99.90
11639;DHT22;5875;35.940;126.892;2024-01-27T14:50:13;1.30;99.90
11639;DHT22;5875;35.940;126.892;2024-01-27T14:52:40;1.20;99.90
11639;DHT22;5875;35.940;126.892;2024-01-27T14:55:10;1.20;99.90
11639;DHT22;5875;35.940;126.892;2024-01-27T14:57:40;1.20;99.90
11639;DHT22;5875;35.940;126.892;2024-01-27T15:00:08;1.10;99.90
11639;DHT22;5875;35.940;126.892;2024-01-27T15:02:35;1.10;99.90
11639;DHT22;5875;35.940;126.892;2024-01-27T15:05:02;1.10;99.90
11639;DHT22;5875;35.940;126.892;2024-01-27T15:07:30;1.10;99.90
11639;DHT22;5875;35.940;126.892;2024-01-27T15:09:57;1.20;99.90
11639;DHT22;5875;35.940;126.892;2024-01-27T15:12:24;1.40;99.90
11639;DHT22;5875;35.940;126.892;2024-01-27T15:14:52;1.50;99.90
11639;DHT22;5875;35.940;126.892;2024-01-27T15:17:19;1.50;99.90
11639;DHT22;5875;35.940;126.892;2024-01-27T15:19:47;1.50;99.90
11639;DHT22;5875;35.940;126.892;2024-01-27T15:22:14;1.60;99.90
11639;DHT22;5875;35.940;126.892;2024-01-27T15:24:41;1.50;99.90
11639;DHT22;5875;35.940;126.892;2024-01-27T15:27:09;1.30;99.90
11639;DHT22;5875;35.940;126.892;2024-01-27T15:29:36;1.30;99.90
11639;DHT22;5875;35.940;126.892;2024-01-27T15:32:03;1.10;99.90
11639;DHT22;5875;35.940;126.892;2024-01-27T15:34:30;1.00;99.90
11639;DHT22;5875;35.940;126.892;2024-01-27T15:36:57;0.90;99.90